Fish Creek, WI

2:36 AM CST on December 10, 2016 (GMT -0600)
Door County, Wisconsin, Spring Road | | Change Station
Active Advisory: Winter Storm Watch

Elev 627 ft 45.12 °N, 87.23 °W | Updated 21 seconds ago

Overcast
Overcast
20.7 °F
Feels Like 21 °F
N
1.8
Wind Variable Wind from NNE
Gusts 2.5 mph

Today
High -- | Low -- °F
--% Chance of Precip.
Yesterday
High -- | Low -- °F
Precip. -- in
Pressure 30.41 in
Visibility 5.0 miles
Clouds Mostly Cloudy 2500 ft
Overcast 3400 ft
Windchill 21 °F
Dew Point 4 °F
Humidity 48%
Rainfall 0.00 in
Snow Depth Not available.
7:17 AM 4:06 PM
Waxing Gibbous, 81% visible
SPECI KMNM 100825Z AUTO 00000KT 5SM -SN BKN025 OVC034 M08/M11 A3041 RMK AO2 P0000 FZRANO
Pressure 30.41 in
Visibility 5.0 miles
Clouds Mostly Cloudy 2500 ft
Overcast 3400 ft
Windchill 21 °F
Dew Point 4 °F
Humidity 48%
Rainfall 0.00 in
Snow Depth Not available.
7:17 AM 4:06 PM
Waxing Gibbous, 81% visible
SPECI KMNM 100825Z AUTO 00000KT 5SM -SN BKN025 OVC034 M08/M11 A3041 RMK AO2 P0000 FZRANO

10-Day Weather Forecast

Almanac

Astronomy

Dec. 10, 2016 Rise Set
Actual Time
Civil Twilight
Nautical Twilight
Astronomical Twilight
Moon
Length of Visible Light
Length of Day
Tomorrow will be .
, % of the Moon is Illuminated

Today's Extremes

State Highs State Lows

Community

WunderPhotos

Upload Photos

1,956,538 photos uploaded!

WunderBlog® & News

Nearby

Air Quality

  Air Quality AQ Index Pollutant
Not available.

Snow Depth

Station Depth Elevation

Earthquake Activity

City Distance Mag. Time & Date
Minimum magnitude displayed is 2.5.

Coastal Water Temperatures

Place Temperature

Stations

Nearby Weather Stations

Station Location Temp. Windchill Dew Point Humidity Wind Precip. Elev Updated Type
                   

Watches & Warnings

Winter Storm Watch
Issued: 8:43 PM CST Dec. 9, 2016 – National Weather Service

... Winter Storm Watch remains in effect from late Saturday night
through late Sunday night...

* timing... Saturday night through Sunday night. There is a
chance that snow will linger into Monday morning. The heaviest
snow is expected late Sunday morning into Sunday evening.

* Snow accumulations... near 6 inches

* main impact... hazardous travel will develop Saturday night and
continue through Sunday. Slick and snow covered roads are
expected with reduced visibilities at times with any heavier
snow.